sensor_id;sensor_type;location;lat;lon;timestamp;pressure;altitude;pressure_sealevel;temperature;humidity
27304;BME280;14791;52.392;13.092;2023-01-10T00:02:10;100299.60;;;12.69;51.09
27304;BME280;14791;52.392;13.092;2023-01-10T00:04:39;100308.37;;;12.71;51.12
27304;BME280;14791;52.392;13.092;2023-01-10T00:07:08;100311.20;;;12.75;51.10
27304;BME280;14791;52.392;13.092;2023-01-10T00:09:37;100312.78;;;12.77;51.09
27304;BME280;14791;52.392;13.092;2023-01-10T00:12:06;100319.23;;;12.81;51.06
27304;BME280;14791;52.392;13.092;2023-01-10T00:14:53;100328.86;;;12.83;50.87
27304;BME280;14791;52.392;13.092;2023-01-10T00:17:21;100325.69;;;12.78;50.81
27304;BME280;14791;52.392;13.092;2023-01-10T00:19:50;100334.47;;;12.74;50.82
27304;BME280;14791;52.392;13.092;2023-01-10T00:22:19;100329.81;;;12.71;50.87
27304;BME280;14791;52.392;13.092;2023-01-10T00:24:50;100333.09;;;12.69;50.86
27304;BME280;14791;52.392;13.092;2023-01-10T00:27:20;100325.05;;;12.63;50.91
27304;BME280;14791;52.392;13.092;2023-01-10T00:29:51;100335.03;;;12.61;50.94
27304;BME280;14791;52.392;13.092;2023-01-10T00:32:21;100329.56;;;12.57;51.05
27304;BME280;14791;52.392;13.092;2023-01-10T00:34:50;100333.69;;;12.55;51.12
27304;BME280;14791;52.392;13.092;2023-01-10T00:37:19;100345.00;;;12.53;51.18
27304;BME280;14791;52.392;13.092;2023-01-10T00:39:48;100349.51;;;12.53;51.23
27304;BME280;14791;52.392;13.092;2023-01-10T00:42:17;100348.17;;;12.53;51.24
27304;BME280;14791;52.392;13.092;2023-01-10T00:45:04;100362.06;;;12.52;51.27
27304;BME280;14791;52.392;13.092;2023-01-10T00:47:33;100359.83;;;12.46;51.31
27304;BME280;14791;52.392;13.092;2023-01-10T00:50:02;100362.50;;;12.46;51.34
27304;BME280;14791;52.392;13.092;2023-01-10T00:52:32;100375.55;;;12.45;51.36
27304;BME280;14791;52.392;13.092;2023-01-10T00:55:01;100368.95;;;12.44;51.40
27304;BME280;14791;52.392;13.092;2023-01-10T00:57:30;100374.41;;;12.42;51.40
27304;BME280;14791;52.392;13.092;2023-01-10T00:59:59;100383.43;;;12.41;51.42
27304;BME280;14791;52.392;13.092;2023-01-10T01:02:28;100385.86;;;12.39;51.39
27304;BME280;14791;52.392;13.092;2023-01-10T01:04:57;100384.27;;;12.36;51.45
27304;BME280;14791;52.392;13.092;2023-01-10T01:07:26;100405.79;;;12.34;51.50
27304;BME280;14791;52.392;13.092;2023-01-10T01:09:55;100400.08;;;12.33;51.51
27304;BME280;14791;52.392;13.092;2023-01-10T01:12:42;100404.20;;;12.32;51.52
27304;BME280;14791;52.392;13.092;2023-01-10T01:15:11;100408.78;;;12.24;51.59
27304;BME280;14791;52.392;13.092;2023-01-10T01:17:39;100407.20;;;12.22;51.62
27304;BME280;14791;52.392;13.092;2023-01-10T01:20:09;100412.78;;;12.19;51.63
27304;BME280;14791;52.392;13.092;2023-01-10T01:22:38;100416.16;;;12.15;51.66
27304;BME280;14791;52.392;13.092;2023-01-10T01:25:08;100415.90;;;12.12;51.71
27304;BME280;14791;52.392;13.092;2023-01-10T01:27:37;100420.14;;;12.09;51.75
27304;BME280;14791;52.392;13.092;2023-01-10T01:30:08;100415.97;;;12.05;51.77
27304;BME280;14791;52.392;13.092;2023-01-10T01:32:38;100421.56;;;12.02;51.81
27304;BME280;14791;52.392;13.092;2023-01-10T01:35:09;100428.09;;;11.98;51.86
27304;BME280;14791;52.392;13.092;2023-01-10T01:37:38;100440.72;;;11.96;51.88
27304;BME280;14791;52.392;13.092;2023-01-10T01:42:41;100448.23;;;11.91;51.96
27304;BME280;14791;52.392;13.092;2023-01-10T01:50:44;100460.14;;;11.80;52.12
27304;BME280;14791;52.392;13.092;2023-01-10T01:53:22;100460.96;;;11.75;52.19
27304;BME280;14791;52.392;13.092;2023-01-10T01:55:51;100476.27;;;11.73;52.26
27304;BME280;14791;52.392;13.092;2023-01-10T01:58:24;100465.42;;;11.68;52.39
27304;BME280;14791;52.392;13.092;2023-01-10T02:00:53;100475.64;;;11.69;52.48
27304;BME280;14791;52.392;13.092;2023-01-10T02:03:22;100479.52;;;11.70;52.59
27304;BME280;14791;52.392;13.092;2023-01-10T02:05:51;100478.94;;;11.73;52.63
27304;BME280;14791;52.392;13.092;2023-01-10T02:08:21;100496.14;;;11.76;52.65
27304;BME280;14791;52.392;13.092;2023-01-10T02:11:26;100495.42;;;11.79;52.64
27304;BME280;14791;52.392;13.092;2023-01-10T02:13:28;100495.78;;;11.80;52.60
27304;BME280;14791;52.392;13.092;2023-01-10T02:15:59;100505.05;;;11.82;52.56
27304;BME280;14791;52.392;13.092;2023-01-10T02:18:28;100502.15;;;11.85;52.53
27304;BME280;14791;52.392;13.092;2023-01-10T02:26:33;100511.47;;;11.79;52.56
27304;BME280;14791;52.392;13.092;2023-01-10T02:35:02;100509.88;;;11.77;52.87
27304;BME280;14791;52.392;13.092;2023-01-10T02:37:42;100516.83;;;11.79;52.94
27304;BME280;14791;52.392;13.092;2023-01-10T02:47:56;100534.86;;;11.90;52.97
27304;BME280;14791;52.392;13.092;2023-01-10T02:50:34;100530.84;;;11.90;53.01
27304;BME280;14791;52.392;13.092;2023-01-10T02:53:06;100538.06;;;11.95;53.00
27304;BME280;14791;52.392;13.092;2023-01-10T02:56:24;100542.34;;;11.98;52.97
27304;BME280;14791;52.392;13.092;2023-01-10T03:01:09;100546.39;;;12.03;52.84
27304;BME280;14791;52.392;13.092;2023-01-10T03:03:50;100550.73;;;11.99;52.88
27304;BME280;14791;52.392;13.092;2023-01-10T03:06:49;100555.59;;;11.99;52.86
27304;BME280;14791;52.392;13.092;2023-01-10T03:11:52;100563.95;;;11.95;52.83
27304;BME280;14791;52.392;13.092;2023-01-10T03:14:23;100571.25;;;11.93;52.74
27304;BME280;14791;52.392;13.092;2023-01-10T03:16:57;100578.40;;;11.92;52.71
27304;BME280;14791;52.392;13.092;2023-01-10T03:19:28;100585.70;;;11.90;52.64
27304;BME280;14791;52.392;13.092;2023-01-10T03:21:58;100594.32;;;11.88;52.69
27304;BME280;14791;52.392;13.092;2023-01-10T03:24:39;100606.42;;;11.86;52.74
27304;BME280;14791;52.392;13.092;2023-01-10T03:27:06;100610.53;;;11.85;52.75
27304;BME280;14791;52.392;13.092;2023-01-10T03:29:42;100610.39;;;11.81;52.80
27304;BME280;14791;52.392;13.092;2023-01-10T03:32:12;100614.02;;;11.80;52.89
27304;BME280;14791;52.392;13.092;2023-01-10T03:34:43;100613.65;;;11.79;52.99
27304;BME280;14791;52.392;13.092;2023-01-10T03:40:17;100617.66;;;11.79;53.04
27304;BME280;14791;52.392;13.092;2023-01-10T03:42:49;100626.00;;;11.74;53.08
27304;BME280;14791;52.392;13.092;2023-01-10T03:45:52;100652.98;;;11.71;53.21
27304;BME280;14791;52.392;13.092;2023-01-10T03:48:09;100649.27;;;11.66;53.34
27304;BME280;14791;52.392;13.092;2023-01-10T03:50:39;100661.67;;;11.67;53.41
27304;BME280;14791;52.392;13.092;2023-01-10T03:53:12;100670.95;;;11.69;53.44
27304;BME280;14791;52.392;13.092;2023-01-10T03:55:42;100670.82;;;11.70;53.45
27304;BME280;14791;52.392;13.092;2023-01-10T03:58:12;100671.70;;;11.71;53.46
27304;BME280;14791;52.392;13.092;2023-01-10T04:00:40;100676.94;;;11.73;53.52
27304;BME280;14791;52.392;13.092;2023-01-10T04:03:09;100684.02;;;11.74;53.55
27304;BME280;14791;52.392;13.092;2023-01-10T04:05:38;100693.26;;;11.75;53.57
27304;BME280;14791;52.392;13.092;2023-01-10T04:08:07;100697.09;;;11.78;53.60
27304;BME280;14791;52.392;13.092;2023-01-10T04:10:36;100700.62;;;11.79;53.58
27304;BME280;14791;52.392;13.092;2023-01-10T04:13:05;100705.84;;;11.80;53.52
27304;BME280;14791;52.392;13.092;2023-01-10T04:15:34;100709.41;;;11.81;53.50
27304;BME280;14791;52.392;13.092;2023-01-10T04:18:03;100715.61;;;11.81;53.54
27304;BME280;14791;52.392;13.092;2023-01-10T04:20:32;100725.83;;;11.82;53.55
27304;BME280;14791;52.392;13.092;2023-01-10T04:23:01;100726.80;;;11.81;53.56
27304;BME280;14791;52.392;13.092;2023-01-10T04:25:29;100729.08;;;11.80;53.63
27304;BME280;14791;52.392;13.092;2023-01-10T04:27:59;100727.74;;;11.80;53.66
27304;BME280;14791;52.392;13.092;2023-01-10T04:30:28;100731.75;;;11.80;53.62
27304;BME280;14791;52.392;13.092;2023-01-10T04:32:57;100746.47;;;11.80;53.60
27304;BME280;14791;52.392;13.092;2023-01-10T04:35:26;100741.61;;;11.79;53.62
27304;BME280;14791;52.392;13.092;2023-01-10T04:37:55;100750.13;;;11.79;53.69
27304;BME280;14791;52.392;13.092;2023-01-10T04:40:24;100762.16;;;11.79;53.71
27304;BME280;14791;52.392;13.092;2023-01-10T04:42:53;100763.23;;;11.76;53.76
27304;BME280;14791;52.392;13.092;2023-01-10T04:45:22;100777.73;;;11.79;53.79
27304;BME280;14791;52.392;13.092;2023-01-10T04:47:51;100776.77;;;11.80;53.83
27304;BME280;14791;52.392;13.092;2023-01-10T04:50:22;100779.84;;;11.81;53.88
27304;BME280;14791;52.392;13.092;2023-01-10T04:52:52;100786.80;;;11.84;53.87
27304;BME280;14791;52.392;13.092;2023-01-10T04:55:21;100791.97;;;11.87;53.87
27304;BME280;14791;52.392;13.092;2023-01-10T04:57:50;100798.09;;;11.89;53.81
27304;BME280;14791;52.392;13.092;2023-01-10T05:00:19;100800.19;;;11.91;53.82
27304;BME280;14791;52.392;13.092;2023-01-10T05:02:48;100795.20;;;11.92;53.80
27304;BME280;14791;52.392;13.092;2023-01-10T05:05:17;100802.38;;;11.91;53.75
27304;BME280;14791;52.392;13.092;2023-01-10T05:07:46;100804.56;;;11.92;53.69
27304;BME280;14791;52.392;13.092;2023-01-10T05:10:15;100803.35;;;11.90;53.69
27304;BME280;14791;52.392;13.092;2023-01-10T05:12:45;100814.14;;;11.89;53.70
27304;BME280;14791;52.392;13.092;2023-01-10T05:15:14;100818.83;;;11.85;53.75
27304;BME280;14791;52.392;13.092;2023-01-10T05:17:43;100831.33;;;11.85;53.79
27304;BME280;14791;52.392;13.092;2023-01-10T05:20:14;100832.30;;;11.84;53.83
27304;BME280;14791;52.392;13.092;2023-01-10T05:22:42;100843.97;;;11.83;53.90
27304;BME280;14791;52.392;13.092;2023-01-10T05:25:12;100839.96;;;11.83;53.88
27304;BME280;14791;52.392;13.092;2023-01-10T05:27:41;100854.28;;;11.82;53.94
27304;BME280;14791;52.392;13.092;2023-01-10T05:30:11;100855.13;;;11.82;54.01
27304;BME280;14791;52.392;13.092;2023-01-10T05:32:41;100862.59;;;11.84;54.10
27304;BME280;14791;52.392;13.092;2023-01-10T05:35:09;100866.52;;;11.86;54.11
27304;BME280;14791;52.392;13.092;2023-01-10T05:37:39;100869.19;;;11.86;54.13
27304;BME280;14791;52.392;13.092;2023-01-10T05:40:09;100876.11;;;11.90;54.11
27304;BME280;14791;52.392;13.092;2023-01-10T05:42:38;100880.48;;;11.91;54.10
27304;BME280;14791;52.392;13.092;2023-01-10T05:45:07;100877.60;;;11.94;54.11
27304;BME280;14791;52.392;13.092;2023-01-10T05:47:37;100886.39;;;11.96;54.07
27304;BME280;14791;52.392;13.092;2023-01-10T05:50:06;100889.84;;;11.98;53.98
27304;BME280;14791;52.392;13.092;2023-01-10T05:52:35;100893.85;;;11.98;53.93
27304;BME280;14791;52.392;13.092;2023-01-10T05:55:05;100895.19;;;11.98;53.87
27304;BME280;14791;52.392;13.092;2023-01-10T05:57:34;100901.12;;;11.96;53.86
27304;BME280;14791;52.392;13.092;2023-01-10T06:00:04;100899.78;;;11.96;53.89
27304;BME280;14791;52.392;13.092;2023-01-10T06:02:35;100905.70;;;11.94;53.95
27304;BME280;14791;52.392;13.092;2023-01-10T06:05:04;100914.71;;;11.93;53.97
27304;BME280;14791;52.392;13.092;2023-01-10T06:07:33;100920.91;;;11.94;53.99
27304;BME280;14791;52.392;13.092;2023-01-10T06:10:03;100924.45;;;11.94;54.06
27304;BME280;14791;52.392;13.092;2023-01-10T06:12:32;100928.86;;;11.95;54.06
27304;BME280;14791;52.392;13.092;2023-01-10T06:15:01;100927.88;;;11.96;54.07
27304;BME280;14791;52.392;13.092;2023-01-10T06:17:32;100941.67;;;11.97;54.08
27304;BME280;14791;52.392;13.092;2023-01-10T06:20:01;100949.09;;;11.99;54.07
27304;BME280;14791;52.392;13.092;2023-01-10T06:22:30;100949.01;;;12.01;54.10
27304;BME280;14791;52.392;13.092;2023-01-10T06:24:59;100951.59;;;12.02;54.10
27304;BME280;14791;52.392;13.092;2023-01-10T06:27:28;100951.39;;;12.05;54.12
27304;BME280;14791;52.392;13.092;2023-01-10T06:29:57;100959.62;;;12.09;54.11
27304;BME280;14791;52.392;13.092;2023-01-10T06:32:27;100964.77;;;12.12;54.00
27304;BME280;14791;52.392;13.092;2023-01-10T06:34:56;100967.23;;;12.16;53.94
27304;BME280;14791;52.392;13.092;2023-01-10T06:37:25;100978.71;;;12.18;53.92
27304;BME280;14791;52.392;13.092;2023-01-10T06:39:54;100980.81;;;12.20;53.93
27304;BME280;14791;52.392;13.092;2023-01-10T06:42:23;100986.94;;;12.22;53.84
27304;BME280;14791;52.392;13.092;2023-01-10T06:44:52;101003.77;;;12.24;53.77
27304;BME280;14791;52.392;13.092;2023-01-10T06:47:21;101012.17;;;12.25;53.78
27304;BME280;14791;52.392;13.092;2023-01-10T06:49:50;101014.85;;;12.25;53.78
27304;BME280;14791;52.392;13.092;2023-01-10T06:52:19;101012.94;;;12.27;53.78
27304;BME280;14791;52.392;13.092;2023-01-10T06:54:48;101018.66;;;12.28;53.80
27304;BME280;14791;52.392;13.092;2023-01-10T06:57:18;101027.47;;;12.30;53.81
27304;BME280;14791;52.392;13.092;2023-01-10T06:59:47;101032.25;;;12.32;53.76
27304;BME280;14791;52.392;13.092;2023-01-10T07:02:16;101029.48;;;12.33;53.73
27304;BME280;14791;52.392;13.092;2023-01-10T07:04:47;101034.72;;;12.35;53.63
27304;BME280;14791;52.392;13.092;2023-01-10T07:07:16;101038.28;;;12.36;53.56
27304;BME280;14791;52.392;13.092;2023-01-10T07:09:45;101049.09;;;12.34;53.57
27304;BME280;14791;52.392;13.092;2023-01-10T07:12:14;101057.48;;;12.35;53.54
27304;BME280;14791;52.392;13.092;2023-01-10T07:14:43;101053.87;;;12.36;53.50
27304;BME280;14791;52.392;13.092;2023-01-10T07:17:12;101056.55;;;12.36;53.46
27304;BME280;14791;52.392;13.092;2023-01-10T07:19:41;101065.92;;;12.36;53.44
27304;BME280;14791;52.392;13.092;2023-01-10T07:22:11;101068.97;;;12.37;53.29
27304;BME280;14791;52.392;13.092;2023-01-10T07:24:40;101078.47;;;12.36;53.34
27304;BME280;14791;52.392;13.092;2023-01-10T07:27:08;101084.27;;;12.35;53.31
27304;BME280;14791;52.392;13.092;2023-01-10T07:29:37;101090.97;;;12.35;53.24
27304;BME280;14791;52.392;13.092;2023-01-10T07:32:06;101090.61;;;12.34;53.23
27304;BME280;14791;52.392;13.092;2023-01-10T07:34:35;101096.91;;;12.33;53.24
27304;BME280;14791;52.392;13.092;2023-01-10T07:37:04;101106.88;;;12.31;53.27
27304;BME280;14791;52.392;13.092;2023-01-10T07:39:34;101102.95;;;12.29;53.21
27304;BME280;14791;52.392;13.092;2023-01-10T07:42:03;101110.12;;;12.29;53.20
27304;BME280;14791;52.392;13.092;2023-01-10T07:44:32;101113.38;;;12.27;53.18
27304;BME280;14791;52.392;13.092;2023-01-10T07:47:01;101123.69;;;12.26;53.21
27304;BME280;14791;52.392;13.092;2023-01-10T07:49:30;101127.34;;;12.25;53.21
27304;BME280;14791;52.392;13.092;2023-01-10T07:51:58;101128.39;;;12.22;53.21
27304;BME280;14791;52.392;13.092;2023-01-10T07:54:27;101136.99;;;12.20;53.24
27304;BME280;14791;52.392;13.092;2023-01-10T07:56:58;101149.90;;;12.21;53.27
27304;BME280;14791;52.392;13.092;2023-01-10T07:59:27;101150.50;;;12.19;53.36
27304;BME280;14791;52.392;13.092;2023-01-10T08:01:57;101152.20;;;12.20;53.43
27304;BME280;14791;52.392;13.092;2023-01-10T08:04:26;101151.16;;;12.22;53.50
27304;BME280;14791;52.392;13.092;2023-01-10T08:06:55;101150.10;;;12.25;53.49
27304;BME280;14791;52.392;13.092;2023-01-10T08:09:24;101159.68;;;12.29;53.47
27304;BME280;14791;52.392;13.092;2023-01-10T08:11:53;101163.13;;;12.31;53.42
27304;BME280;14791;52.392;13.092;2023-01-10T08:14:23;101167.88;;;12.33;53.45
27304;BME280;14791;52.392;13.092;2023-01-10T08:16:53;101167.43;;;12.33;53.43
27304;BME280;14791;52.392;13.092;2023-01-10T08:19:22;101168.37;;;12.32;53.39
27304;BME280;14791;52.392;13.092;2023-01-10T08:21:53;101174.78;;;12.30;53.35
27304;BME280;14791;52.392;13.092;2023-01-10T08:24:22;101179.77;;;12.29;53.30
27304;BME280;14791;52.392;13.092;2023-01-10T08:26:50;101185.00;;;12.23;53.32
27304;BME280;14791;52.392;13.092;2023-01-10T08:29:19;101190.67;;;12.19;53.35
27304;BME280;14791;52.392;13.092;2023-01-10T08:31:48;101194.37;;;12.16;53.40
27304;BME280;14791;52.392;13.092;2023-01-10T08:34:17;101196.39;;;12.12;53.41
27304;BME280;14791;52.392;13.092;2023-01-10T08:36:50;101204.62;;;12.09;53.50
27304;BME280;14791;52.392;13.092;2023-01-10T08:39:20;101198.08;;;12.06;53.56
27304;BME280;14791;52.392;13.092;2023-01-10T08:41:49;101200.88;;;12.05;53.67
27304;BME280;14791;52.392;13.092;2023-01-10T08:44:18;101212.07;;;12.04;53.78
27304;BME280;14791;52.392;13.092;2023-01-10T08:46:47;101211.59;;;12.05;53.90
27304;BME280;14791;52.392;13.092;2023-01-10T08:49:16;101215.89;;;12.07;54.02
27304;BME280;14791;52.392;13.092;2023-01-10T08:51:45;101216.67;;;12.09;54.07
27304;BME280;14791;52.392;13.092;2023-01-10T08:54:14;101217.81;;;12.12;54.11
27304;BME280;14791;52.392;13.092;2023-01-10T08:56:43;101224.72;;;12.17;54.15
27304;BME280;14791;52.392;13.092;2023-01-10T08:59:12;101226.63;;;12.22;54.29
27304;BME280;14791;52.392;13.092;2023-01-10T09:01:42;101228.83;;;12.22;54.37
27304;BME280;14791;52.392;13.092;2023-01-10T09:04:11;101235.89;;;12.23;54.46
27304;BME280;14791;52.392;13.092;2023-01-10T09:06:40;101248.99;;;12.21;54.53
27304;BME280;14791;52.392;13.092;2023-01-10T09:09:09;101251.02;;;12.17;54.40
27304;BME280;14791;52.392;13.092;2023-01-10T09:11:38;101248.23;;;12.11;54.39
27304;BME280;14791;52.392;13.092;2023-01-10T09:14:07;101257.39;;;12.07;54.58
27304;BME280;14791;52.392;13.092;2023-01-10T09:16:36;101254.50;;;12.03;54.65
27304;BME280;14791;52.392;13.092;2023-01-10T09:19:05;101265.00;;;11.99;54.73
27304;BME280;14791;52.392;13.092;2023-01-10T09:21:34;101264.14;;;11.99;54.84
27304;BME280;14791;52.392;13.092;2023-01-10T09:24:03;101272.18;;;11.99;54.84
27304;BME280;14791;52.392;13.092;2023-01-10T09:26:31;101262.92;;;11.97;54.91
27304;BME280;14791;52.392;13.092;2023-01-10T09:29:00;101274.97;;;11.97;54.96
27304;BME280;14791;52.392;13.092;2023-01-10T09:31:29;101268.72;;;11.97;55.10
27304;BME280;14791;52.392;13.092;2023-01-10T09:33:58;101268.84;;;11.95;55.29
27304;BME280;14791;52.392;13.092;2023-01-10T09:36:27;101274.34;;;11.92;55.37
27304;BME280;14791;52.392;13.092;2023-01-10T09:38:56;101275.95;;;11.87;55.23
27304;BME280;14791;52.392;13.092;2023-01-10T09:46:56;101286.45;;;11.67;55.27
27304;BME280;14791;52.392;13.092;2023-01-10T09:49:41;101285.94;;;11.61;55.50
27304;BME280;14791;52.392;13.092;2023-01-10T09:52:26;101297.94;;;11.54;55.65
27304;BME280;14791;52.392;13.092;2023-01-10T09:54:57;101292.84;;;11.49;55.79
27304;BME280;14791;52.392;13.092;2023-01-10T09:57:27;101292.66;;;11.45;55.95
27304;BME280;14791;52.392;13.092;2023-01-10T09:59:57;101293.10;;;11.44;55.90
27304;BME280;14791;52.392;13.092;2023-01-10T10:02:33;101287.30;;;11.45;55.97
27304;BME280;14791;52.392;13.092;2023-01-10T10:05:16;101277.94;;;11.45;55.97
27304;BME280;14791;52.392;13.092;2023-01-10T10:07:49;101278.31;;;11.46;56.02
27304;BME280;14791;52.392;13.092;2023-01-10T10:10:30;101287.68;;;11.46;56.05
27304;BME280;14791;52.392;13.092;2023-01-10T10:13:02;101279.95;;;11.48;56.15
27304;BME280;14791;52.392;13.092;2023-01-10T10:18:34;101283.52;;;11.56;56.31
27304;BME280;14791;52.392;13.092;2023-01-10T10:21:01;101283.74;;;11.60;56.28
27304;BME280;14791;52.392;13.092;2023-01-10T10:26:32;101286.27;;;11.70;56.37
27304;BME280;14791;52.392;13.092;2023-01-10T10:29:25;101287.27;;;11.77;56.43
27304;BME280;14791;52.392;13.092;2023-01-10T10:32:00;101289.41;;;11.86;56.28
27304;BME280;14791;52.392;13.092;2023-01-10T10:34:39;101294.42;;;11.92;56.22
27304;BME280;14791;52.392;13.092;2023-01-10T10:37:16;101301.14;;;11.99;56.19
27304;BME280;14791;52.392;13.092;2023-01-10T10:39:44;101301.95;;;12.08;56.05
27304;BME280;14791;52.392;13.092;2023-01-10T10:42:16;101307.73;;;12.17;55.83
27304;BME280;14791;52.392;13.092;2023-01-10T10:47:22;101302.58;;;12.28;55.28
27304;BME280;14791;52.392;13.092;2023-01-10T10:52:43;101316.39;;;12.36;55.17
27304;BME280;14791;52.392;13.092;2023-01-10T10:55:16;101327.88;;;12.38;55.09
27304;BME280;14791;52.392;13.092;2023-01-10T10:57:46;101329.03;;;12.41;55.01
27304;BME280;14791;52.392;13.092;2023-01-10T11:00:19;101334.59;;;12.45;54.94
27304;BME280;14791;52.392;13.092;2023-01-10T11:03:00;101326.28;;;12.50;54.93
27304;BME280;14791;52.392;13.092;2023-01-10T11:05:40;101326.86;;;12.55;54.82
27304;BME280;14791;52.392;13.092;2023-01-10T11:08:07;101319.41;;;12.60;54.72
27304;BME280;14791;52.392;13.092;2023-01-10T11:10:39;101307.63;;;12.63;54.57
27304;BME280;14791;52.392;13.092;2023-01-10T11:13:19;101309.74;;;12.65;54.42
27304;BME280;14791;52.392;13.092;2023-01-10T11:15:48;101300.17;;;12.68;54.30
27304;BME280;14791;52.392;13.092;2023-01-10T11:18:20;101309.47;;;12.69;54.14
27304;BME280;14791;52.392;13.092;2023-01-10T11:21:00;101310.23;;;12.71;53.97
27304;BME280;14791;52.392;13.092;2023-01-10T11:23:51;101315.11;;;12.72;53.90
27304;BME280;14791;52.392;13.092;2023-01-10T11:29:16;101318.36;;;12.70;54.09
27304;BME280;14791;52.392;13.092;2023-01-10T11:31:48;101316.83;;;12.73;54.12
27304;BME280;14791;52.392;13.092;2023-01-10T11:34:27;101318.45;;;12.75;54.16
27304;BME280;14791;52.392;13.092;2023-01-10T11:37:02;101322.48;;;12.83;54.00
27304;BME280;14791;52.392;13.092;2023-01-10T11:39:32;101334.66;;;12.88;53.94
27304;BME280;14791;52.392;13.092;2023-01-10T11:44:49;101334.75;;;13.01;53.63
27304;BME280;14791;52.392;13.092;2023-01-10T11:47:19;101339.06;;;13.04;53.51
27304;BME280;14791;52.392;13.092;2023-01-10T11:49:49;101345.56;;;13.07;53.23
27304;BME280;14791;52.392;13.092;2023-01-10T11:52:28;101352.67;;;13.08;53.06
27304;BME280;14791;52.392;13.092;2023-01-10T11:54:54;101343.28;;;13.08;52.87
27304;BME280;14791;52.392;13.092;2023-01-10T11:57:27;101353.52;;;13.08;52.86
27304;BME280;14791;52.392;13.092;2023-01-10T12:00:05;101341.54;;;13.07;52.85
27304;BME280;14791;52.392;13.092;2023-01-10T12:02:41;101346.82;;;13.08;52.92
27304;BME280;14791;52.392;13.092;2023-01-10T12:05:17;101340.89;;;13.10;53.04
27304;BME280;14791;52.392;13.092;2023-01-10T12:07:57;101334.95;;;13.12;52.95
27304;BME280;14791;52.392;13.092;2023-01-10T12:10:27;101339.63;;;13.16;52.85
27304;BME280;14791;52.392;13.092;2023-01-10T12:12:59;101341.38;;;13.17;52.74
27304;BME280;14791;52.392;13.092;2023-01-10T12:15:30;101351.50;;;13.19;52.57
27304;BME280;14791;52.392;13.092;2023-01-10T12:18:02;101341.05;;;13.22;52.50
27304;BME280;14791;52.392;13.092;2023-01-10T12:20:36;101342.30;;;13.23;52.34
27304;BME280;14791;52.392;13.092;2023-01-10T12:23:07;101343.08;;;13.25;52.32
27304;BME280;14791;52.392;13.092;2023-01-10T12:25:41;101343.88;;;13.27;52.38
27304;BME280;14791;52.392;13.092;2023-01-10T12:28:23;101353.27;;;13.34;52.31
27304;BME280;14791;52.392;13.092;2023-01-10T12:30:52;101347.97;;;13.40;52.14
27304;BME280;14791;52.392;13.092;2023-01-10T12:33:29;101352.48;;;13.47;52.03
27304;BME280;14791;52.392;13.092;2023-01-10T12:38:56;101362.42;;;13.59;51.71
27304;BME280;14791;52.392;13.092;2023-01-10T12:44:43;101365.30;;;13.63;51.53
27304;BME280;14791;52.392;13.092;2023-01-10T12:50:33;101373.92;;;13.61;51.54
27304;BME280;14791;52.392;13.092;2023-01-10T12:55:52;101382.95;;;13.60;51.66
27304;BME280;14791;52.392;13.092;2023-01-10T12:58:36;101390.03;;;13.61;51.69
27304;BME280;14791;52.392;13.092;2023-01-10T13:01:05;101386.66;;;13.65;51.65
27304;BME280;14791;52.392;13.092;2023-01-10T13:03:35;101401.33;;;13.66;51.57
27304;BME280;14791;52.392;13.092;2023-01-10T13:06:05;101406.49;;;13.69;51.41
27304;BME280;14791;52.392;13.092;2023-01-10T13:08:36;101415.31;;;13.71;51.39
27304;BME280;14791;52.392;13.092;2023-01-10T13:11:07;101409.77;;;13.74;51.23
27304;BME280;14791;52.392;13.092;2023-01-10T13:13:47;101419.63;;;13.74;51.16
27304;BME280;14791;52.392;13.092;2023-01-10T13:21:42;101421.95;;;13.66;50.98
27304;BME280;14791;52.392;13.092;2023-01-10T13:24:21;101422.23;;;13.61;50.96
27304;BME280;14791;52.392;13.092;2023-01-10T13:29:36;101419.77;;;13.58;51.05
27304;BME280;14791;52.392;13.092;2023-01-10T13:31:57;101418.42;;;13.58;51.05
27304;BME280;14791;52.392;13.092;2023-01-10T13:34:34;101418.78;;;13.59;51.10
27304;BME280;14791;52.392;13.092;2023-01-10T13:37:31;101411.49;;;13.68;51.33
27304;BME280;14791;52.392;13.092;2023-01-10T13:40:00;101408.59;;;13.78;51.42
27304;BME280;14791;52.392;13.092;2023-01-10T13:42:37;101421.98;;;13.93;51.26
27304;BME280;14791;52.392;13.092;2023-01-10T13:45:26;101418.70;;;14.02;50.84
27304;BME280;14791;52.392;13.092;2023-01-10T13:47:57;101424.84;;;14.04;50.67
27304;BME280;14791;52.392;13.092;2023-01-10T14:01:32;101414.67;;;14.02;50.18
27304;BME280;14791;52.392;13.092;2023-01-10T14:09:43;101445.58;;;13.95;50.21
27304;BME280;14791;52.392;13.092;2023-01-10T14:12:16;101432.73;;;13.93;50.09
27304;BME280;14791;52.392;13.092;2023-01-10T14:14:50;101433.80;;;13.90;50.04
27304;BME280;14791;52.392;13.092;2023-01-10T14:17:28;101435.62;;;13.90;50.04
27304;BME280;14791;52.392;13.092;2023-01-10T14:20:03;101440.02;;;13.91;50.07
27304;BME280;14791;52.392;13.092;2023-01-10T14:22:37;101440.99;;;13.90;50.08
27304;BME280;14791;52.392;13.092;2023-01-10T14:25:19;101438.67;;;13.91;50.08
27304;BME280;14791;52.392;13.092;2023-01-10T14:27:43;101438.59;;;13.92;49.94
27304;BME280;14791;52.392;13.092;2023-01-10T14:30:25;101441.20;;;13.87;49.85
27304;BME280;14791;52.392;13.092;2023-01-10T14:32:56;101442.91;;;13.88;49.75
27304;BME280;14791;52.392;13.092;2023-01-10T14:35:36;101445.89;;;13.83;49.78
27304;BME280;14791;52.392;13.092;2023-01-10T14:38:00;101439.88;;;13.79;49.80